createdAt,value
2022-11-23T00:00:44.922Z,6.80
2022-11-23T00:03:16.244Z,6.80
2022-11-23T00:05:43.485Z,6.80
2022-11-23T00:08:10.754Z,6.80
2022-11-23T00:10:38.145Z,6.90
2022-11-23T00:13:05.385Z,6.90
2022-11-23T00:15:32.617Z,6.90
2022-11-23T00:18:02.694Z,6.90
2022-11-23T00:20:29.938Z,6.80
2022-11-23T00:22:57.458Z,6.80
2022-11-23T00:25:24.758Z,6.80
2022-11-23T00:27:52.016Z,6.80
2022-11-23T00:30:19.239Z,6.80
2022-11-23T00:32:46.705Z,6.70
2022-11-23T00:35:13.996Z,6.70
2022-11-23T00:37:41.252Z,6.60
2022-11-23T00:40:09.382Z,6.60
2022-11-23T00:42:38.331Z,6.50
2022-11-23T00:45:06.435Z,6.50
2022-11-23T00:47:33.679Z,6.50
2022-11-23T00:50:00.941Z,6.40
2022-11-23T00:52:28.272Z,6.40
2022-11-23T00:54:55.500Z,6.40
2022-11-23T00:57:22.896Z,6.40
2022-11-23T00:59:50.145Z,6.40
2022-11-23T01:02:17.401Z,6.40
2022-11-23T01:04:44.674Z,6.40
2022-11-23T01:07:12.275Z,6.40
2022-11-23T01:09:40.516Z,6.40
2022-11-23T01:12:08.081Z,6.40
2022-11-23T01:14:35.519Z,6.40
2022-11-23T01:17:05.446Z,6.40
2022-11-23T01:19:35.463Z,6.40
2022-11-23T01:22:02.857Z,6.40
2022-11-23T01:24:30.336Z,6.40
2022-11-23T01:26:57.730Z,6.30
2022-11-23T01:29:27.341Z,6.30
2022-11-23T01:31:54.569Z,6.30
2022-11-23T01:34:22.281Z,6.30
2022-11-23T01:36:50.721Z,6.30
2022-11-23T01:39:18.097Z,6.40
2022-11-23T01:41:46.413Z,6.40
2022-11-23T01:44:32.258Z,6.40
2022-11-23T01:47:01.909Z,6.50
2022-11-23T01:49:35.560Z,6.50
2022-11-23T01:52:12.917Z,6.50
2022-11-23T01:54:56.635Z,6.60
2022-11-23T01:57:34.717Z,6.50
2022-11-23T02:00:02.307Z,6.60
2022-11-23T02:02:47.778Z,6.50
2022-11-23T02:05:18.569Z,6.60
2022-11-23T02:07:48.109Z,6.50
2022-11-23T02:10:16.461Z,6.50
2022-11-23T02:12:43.765Z,6.50
2022-11-23T02:15:13.044Z,6.40
2022-11-23T02:17:43.633Z,6.40
2022-11-23T02:20:13.999Z,6.40
2022-11-23T02:23:08.347Z,6.40
2022-11-23T02:25:35.560Z,6.40
2022-11-23T02:28:03.673Z,6.40
2022-11-23T02:30:32.647Z,6.40
2022-11-23T02:32:59.909Z,6.40
2022-11-23T02:35:27.257Z,6.40
2022-11-23T02:37:54.798Z,6.40
2022-11-23T02:40:33.861Z,6.30
2022-11-23T02:43:01.609Z,6.30
2022-11-23T02:45:29.494Z,6.40
2022-11-23T02:47:56.988Z,6.30
2022-11-23T02:50:24.339Z,6.30
2022-11-23T02:52:51.598Z,6.30
2022-11-23T02:55:19.279Z,6.30
2022-11-23T02:57:47.575Z,6.40
2022-11-23T03:00:17.427Z,6.40
2022-11-23T03:02:45.022Z,6.40
2022-11-23T03:05:12.874Z,6.40
2022-11-23T03:07:40.241Z,6.30
2022-11-23T03:10:08.373Z,6.30
2022-11-23T03:12:35.891Z,6.40
2022-11-23T03:15:04.344Z,6.30
2022-11-23T03:17:33.519Z,6.40
2022-11-23T03:20:01.056Z,6.30
2022-11-23T03:22:30.627Z,6.30
2022-11-23T03:24:58.939Z,6.30
2022-11-23T03:27:26.579Z,6.30
2022-11-23T03:29:54.110Z,6.30
2022-11-23T03:32:21.897Z,6.30
2022-11-23T03:34:53.399Z,6.30
2022-11-23T03:37:22.476Z,6.30
2022-11-23T03:39:49.997Z,6.30
2022-11-23T03:42:43.057Z,6.20
2022-11-23T03:45:10.901Z,6.30
2022-11-23T03:47:38.290Z,6.20
2022-11-23T03:50:06.270Z,6.20
2022-11-23T03:52:33.609Z,6.20
2022-11-23T03:55:01.173Z,6.20
2022-11-23T03:57:28.497Z,6.20
2022-11-23T03:59:56.093Z,6.20
2022-11-23T04:02:23.544Z,6.20
2022-11-23T04:05:01.972Z,6.20
2022-11-23T04:07:50.374Z,6.20
2022-11-23T04:10:19.336Z,6.20
2022-11-23T04:13:21.980Z,6.10
2022-11-23T04:15:50.262Z,6.10
2022-11-23T04:18:18.391Z,6.10
2022-11-23T04:20:46.498Z,6.10
2022-11-23T04:23:13.928Z,6.10
2022-11-23T04:25:42.987Z,6.00
2022-11-23T04:28:10.611Z,6.00
2022-11-23T04:30:38.861Z,6.00
2022-11-23T04:33:06.983Z,6.10
2022-11-23T04:35:36.238Z,6.10
2022-11-23T04:38:03.628Z,6.10
2022-11-23T04:40:32.333Z,6.00
2022-11-23T04:43:03.701Z,6.00
2022-11-23T04:45:41.037Z,6.00
2022-11-23T04:48:15.103Z,6.00
2022-11-23T04:50:46.641Z,6.00
2022-11-23T04:53:18.050Z,6.00
2022-11-23T04:55:47.625Z,6.00
2022-11-23T04:58:16.543Z,6.00
2022-11-23T05:00:44.183Z,6.00
2022-11-23T05:03:13.615Z,6.00
2022-11-23T05:05:42.874Z,6.00
2022-11-23T05:08:10.708Z,6.00
2022-11-23T05:10:47.479Z,6.10
2022-11-23T05:13:14.952Z,6.10
2022-11-23T05:15:43.286Z,6.20
2022-11-23T05:18:14.816Z,6.20
2022-11-23T05:20:42.521Z,6.30
2022-11-23T05:23:11.227Z,6.30
2022-11-23T05:25:41.799Z,6.30
2022-11-23T05:28:38.895Z,6.30
2022-11-23T05:31:05.168Z,6.30
2022-11-23T05:33:32.658Z,6.30
2022-11-23T05:36:00.527Z,6.30
2022-11-23T05:38:36.536Z,6.30
2022-11-23T05:41:09.267Z,6.20
2022-11-23T05:43:39.621Z,6.20
2022-11-23T05:46:09.655Z,6.20
2022-11-23T05:48:38.681Z,6.10
2022-11-23T05:51:10.897Z,6.10
2022-11-23T05:53:43.909Z,6.10
2022-11-23T05:56:19.822Z,6.10
2022-11-23T05:58:59.505Z,6.00
2022-11-23T06:01:26.818Z,6.00
2022-11-23T06:03:59.852Z,5.90
2022-11-23T06:06:29.807Z,5.90
2022-11-23T06:08:57.338Z,5.90
2022-11-23T06:11:24.675Z,5.90
2022-11-23T06:13:52.343Z,5.90
2022-11-23T06:16:20.052Z,5.80
2022-11-23T06:18:59.449Z,5.80
2022-11-23T06:21:26.701Z,5.70
2022-11-23T06:23:53.941Z,5.70
2022-11-23T06:26:22.562Z,5.60
2022-11-23T06:28:49.795Z,5.60
2022-11-23T06:31:18.387Z,5.60
2022-11-23T06:33:45.614Z,5.60
2022-11-23T06:36:13.789Z,5.60
2022-11-23T06:38:46.861Z,5.60
2022-11-23T06:41:17.996Z,5.60
2022-11-23T06:43:48.079Z,5.60
2022-11-23T06:46:24.513Z,5.60
2022-11-23T06:48:51.926Z,5.70
2022-11-23T06:51:19.189Z,5.70
2022-11-23T06:53:48.394Z,5.70
2022-11-23T06:56:17.429Z,5.60
2022-11-23T06:58:46.269Z,5.60
2022-11-23T07:01:19.006Z,5.60
2022-11-23T07:03:53.785Z,5.60
2022-11-23T07:06:34.400Z,5.60
2022-11-23T07:09:07.884Z,5.60
2022-11-23T07:12:06.957Z,5.60
2022-11-23T07:14:35.219Z,5.60
2022-11-23T07:17:02.551Z,5.60
2022-11-23T07:19:30.005Z,5.60
2022-11-23T07:21:59.802Z,5.60
2022-11-23T07:24:27.056Z,5.70
2022-11-23T07:26:54.347Z,5.70
2022-11-23T07:29:21.680Z,5.80
2022-11-23T07:31:49.314Z,5.80
2022-11-23T07:34:16.619Z,5.90
2022-11-23T07:36:44.458Z,5.90
2022-11-23T07:39:11.890Z,5.90
2022-11-23T07:41:39.162Z,5.90
2022-11-23T07:44:09.417Z,5.90
2022-11-23T07:46:37.078Z,5.90
2022-11-23T07:49:04.536Z,5.90
2022-11-23T07:51:31.989Z,5.90
2022-11-23T07:53:59.317Z,5.90
2022-11-23T07:56:26.616Z,5.90
2022-11-23T07:58:53.985Z,6.00
2022-11-23T08:01:21.272Z,6.00
2022-11-23T08:03:49.299Z,6.00
2022-11-23T08:06:17.113Z,6.10
2022-11-23T08:08:44.914Z,6.10
2022-11-23T08:11:14.779Z,6.10
2022-11-23T08:13:42.046Z,6.10
2022-11-23T08:16:09.546Z,6.10
2022-11-23T08:18:37.085Z,6.20
2022-11-23T08:21:04.566Z,6.20
2022-11-23T08:23:31.780Z,6.20
2022-11-23T08:25:59.163Z,6.30
2022-11-23T08:28:26.682Z,6.40
2022-11-23T08:30:54.302Z,6.40
2022-11-23T08:33:21.629Z,6.50
2022-11-23T08:35:48.855Z,6.60
2022-11-23T08:38:16.227Z,6.70
2022-11-23T08:40:43.508Z,6.70
2022-11-23T08:43:10.895Z,6.80
2022-11-23T08:45:38.218Z,6.90
2022-11-23T08:48:06.007Z,6.90
2022-11-23T08:50:34.649Z,7.00
2022-11-23T08:53:02.046Z,7.00
2022-11-23T08:55:30.061Z,7.10
2022-11-23T08:58:00.795Z,7.10
2022-11-23T09:00:29.566Z,7.10
2022-11-23T09:02:59.133Z,7.10
2022-11-23T09:05:30.247Z,7.10
2022-11-23T09:08:01.181Z,7.10
2022-11-23T09:10:28.911Z,7.00
2022-11-23T09:12:56.334Z,7.00
2022-11-23T09:15:23.670Z,7.00
2022-11-23T09:17:50.895Z,7.00
2022-11-23T09:20:18.511Z,7.00
2022-11-23T09:22:51.412Z,7.00
2022-11-23T09:25:19.060Z,7.00
2022-11-23T09:27:46.323Z,7.10
2022-11-23T09:30:14.437Z,7.10
2022-11-23T09:32:41.811Z,7.10
2022-11-23T09:35:09.456Z,7.20
2022-11-23T09:37:36.990Z,7.20
2022-11-23T09:40:04.933Z,7.20
2022-11-23T09:43:07.706Z,7.30
2022-11-23T09:45:51.093Z,7.30
2022-11-23T09:48:21.161Z,7.40
2022-11-23T09:50:50.927Z,7.40
2022-11-23T09:53:49.585Z,7.50
2022-11-23T09:56:30.008Z,7.60
2022-11-23T09:59:06.277Z,7.60
2022-11-23T10:01:33.767Z,7.60
2022-11-23T10:04:01.523Z,7.60
2022-11-23T10:06:37.362Z,7.60
2022-11-23T10:09:13.880Z,7.60
2022-11-23T10:11:53.390Z,7.60
2022-11-23T10:14:39.096Z,7.60
2022-11-23T10:17:42.342Z,7.60
2022-11-23T10:20:48.571Z,7.60
2022-11-23T10:23:24.454Z,7.60
2022-11-23T10:25:52.645Z,7.70
2022-11-23T10:28:21.933Z,7.80
2022-11-23T10:31:13.610Z,7.80
2022-11-23T10:34:11.613Z,7.90
2022-11-23T10:36:39.652Z,8.10
2022-11-23T10:39:19.927Z,8.10
2022-11-23T10:41:47.640Z,8.20
2022-11-23T10:44:34.453Z,8.40
2022-11-23T10:47:02.366Z,8.40
2022-11-23T10:49:35.775Z,8.40
2022-11-23T10:52:05.918Z,8.40
2022-11-23T10:54:35.355Z,8.50
2022-11-23T10:57:22.046Z,8.40
2022-11-23T11:00:13.505Z,8.50
2022-11-23T11:02:45.862Z,8.50
2022-11-23T11:05:46.423Z,8.50
2022-11-23T11:08:16.914Z,8.50
2022-11-23T11:10:50.141Z,8.50
2022-11-23T11:13:44.593Z,8.50
2022-11-23T11:16:26.601Z,8.50
2022-11-23T11:18:53.999Z,8.50
2022-11-23T11:21:35.985Z,8.50
2022-11-23T11:24:05.076Z,8.50
2022-11-23T11:26:35.904Z,8.50
2022-11-23T11:29:06.818Z,8.50
2022-11-23T11:31:57.891Z,8.40
2022-11-23T11:34:46.444Z,8.30
2022-11-23T11:37:32.577Z,8.20
2022-11-23T11:40:21.767Z,8.20
2022-11-23T11:43:07.197Z,8.30
2022-11-23T11:45:54.438Z,8.30
2022-11-23T11:48:40.894Z,8.40
2022-11-23T11:51:30.184Z,8.40
2022-11-23T11:54:21.826Z,8.50
2022-11-23T11:56:55.735Z,8.60
2022-11-23T11:59:45.261Z,8.60
2022-11-23T12:02:27.699Z,8.60
2022-11-23T12:05:14.536Z,8.70
2022-11-23T12:08:02.188Z,8.70
2022-11-23T12:10:35.637Z,8.70
2022-11-23T12:13:03.157Z,8.80
2022-11-23T12:15:50.582Z,8.80
2022-11-23T12:18:27.249Z,8.80
2022-11-23T12:21:06.911Z,8.80
2022-11-23T12:23:49.415Z,8.80
2022-11-23T12:26:16.752Z,8.80
2022-11-23T12:28:53.092Z,8.70
2022-11-23T12:31:48.538Z,8.60
2022-11-23T12:34:38.127Z,8.60
2022-11-23T12:37:08.509Z,8.50
2022-11-23T12:39:35.840Z,8.50
2022-11-23T12:42:26.116Z,8.60
2022-11-23T12:45:24.141Z,8.50
2022-11-23T12:48:31.905Z,8.50
2022-11-23T12:51:27.064Z,8.60
2022-11-23T12:54:03.329Z,8.70
2022-11-23T12:57:00.155Z,8.70
2022-11-23T13:00:00.541Z,8.70
2022-11-23T13:02:27.875Z,8.70
2022-11-23T13:05:20.460Z,8.80
2022-11-23T13:08:20.651Z,8.80
2022-11-23T13:11:07.308Z,8.80
2022-11-23T13:13:55.619Z,8.70
2022-11-23T13:16:31.955Z,8.70
2022-11-23T13:19:08.373Z,8.70
2022-11-23T13:21:43.892Z,8.70
2022-11-23T13:24:34.663Z,8.70
2022-11-23T13:27:31.640Z,8.80
2022-11-23T13:30:07.121Z,8.70
2022-11-23T13:32:40.433Z,8.70
2022-11-23T13:35:17.067Z,8.70
2022-11-23T13:37:56.655Z,8.70
2022-11-23T13:40:34.463Z,8.60
2022-11-23T13:43:31.834Z,8.60
2022-11-23T13:46:30.237Z,8.60
2022-11-23T13:49:00.085Z,8.60
2022-11-23T13:51:35.024Z,8.60
2022-11-23T13:54:05.543Z,8.60
2022-11-23T13:56:36.647Z,8.60
2022-11-23T13:59:22.786Z,8.60
2022-11-23T14:02:22.591Z,8.60
2022-11-23T14:04:49.961Z,8.70
2022-11-23T14:07:26.370Z,8.70
2022-11-23T14:10:10.036Z,8.70
2022-11-23T14:12:58.776Z,8.70
2022-11-23T14:15:30.048Z,8.70
2022-11-23T14:18:21.783Z,8.70
2022-11-23T14:21:12.809Z,8.70
2022-11-23T14:24:17.904Z,8.60
2022-11-23T14:27:31.245Z,8.60
2022-11-23T14:30:06.024Z,8.60
2022-11-23T14:33:02.058Z,8.50
2022-11-23T14:35:49.161Z,8.50
2022-11-23T14:38:50.389Z,8.50
2022-11-23T14:41:23.613Z,8.50
2022-11-23T14:43:52.278Z,8.40
2022-11-23T14:46:22.539Z,8.40
2022-11-23T14:48:50.373Z,8.40
2022-11-23T14:51:23.149Z,8.40
2022-11-23T14:53:54.401Z,8.40
2022-11-23T14:56:27.518Z,8.40
2022-11-23T14:59:01.574Z,8.40
2022-11-23T15:01:29.079Z,8.40
2022-11-23T15:04:06.566Z,8.30
2022-11-23T15:06:42.354Z,8.20
2022-11-23T15:09:49.707Z,8.20
2022-11-23T15:12:23.425Z,8.20
2022-11-23T15:14:51.805Z,8.10
2022-11-23T15:17:21.400Z,8.10
2022-11-23T15:19:56.813Z,8.10
2022-11-23T15:22:25.099Z,8.10
2022-11-23T15:24:52.831Z,8.10
2022-11-23T15:27:29.129Z,8.10
2022-11-23T15:29:59.430Z,8.10
2022-11-23T15:32:32.532Z,8.10
2022-11-23T15:35:06.655Z,8.10
2022-11-23T15:37:41.014Z,8.10
2022-11-23T15:40:16.858Z,8.00
2022-11-23T15:42:45.598Z,8.00
2022-11-23T15:45:33.892Z,8.00
2022-11-23T15:48:10.295Z,7.90
2022-11-23T15:50:52.672Z,7.90
2022-11-23T15:53:24.612Z,7.90
2022-11-23T15:55:53.333Z,7.90
2022-11-23T15:58:21.853Z,7.90
2022-11-23T16:01:03.857Z,7.90
2022-11-23T16:04:01.108Z,7.90
2022-11-23T16:06:42.186Z,7.90
2022-11-23T16:09:53.800Z,7.80
2022-11-23T16:12:34.166Z,7.80
2022-11-23T16:15:30.720Z,7.80
2022-11-23T16:18:02.224Z,7.80
2022-11-23T16:20:29.968Z,7.80
2022-11-23T16:23:00.249Z,7.80
2022-11-23T16:25:33.563Z,7.90
2022-11-23T16:28:17.582Z,7.90
2022-11-23T16:30:48.950Z,7.90
2022-11-23T16:33:19.085Z,8.00
2022-11-23T16:35:48.138Z,8.00
2022-11-23T16:38:15.688Z,8.10
2022-11-23T16:40:44.278Z,8.10
2022-11-23T16:43:12.598Z,8.10
2022-11-23T16:45:45.216Z,8.10
2022-11-23T16:48:37.065Z,8.20
2022-11-23T16:51:05.195Z,8.20
2022-11-23T16:53:53.398Z,8.20
2022-11-23T16:56:24.056Z,8.20
2022-11-23T16:58:52.606Z,8.10
2022-11-23T17:01:24.351Z,8.10
2022-11-23T17:03:52.031Z,8.10
2022-11-23T17:06:23.043Z,8.00
2022-11-23T17:08:59.252Z,8.00
2022-11-23T17:11:28.527Z,8.00
2022-11-23T17:13:57.021Z,8.00
2022-11-23T17:16:26.645Z,7.90
2022-11-23T17:18:54.204Z,7.90
2022-11-23T17:21:21.641Z,7.90
2022-11-23T17:23:49.197Z,7.90
2022-11-23T17:26:38.758Z,7.90
2022-11-23T17:29:10.454Z,7.90
2022-11-23T17:31:37.828Z,7.90
2022-11-23T17:34:05.130Z,7.90
2022-11-23T17:36:32.546Z,7.90
2022-11-23T17:38:59.933Z,7.90
2022-11-23T17:41:27.206Z,7.90
2022-11-23T17:43:55.231Z,7.90
2022-11-23T17:46:24.048Z,7.90
2022-11-23T17:48:58.910Z,7.90
2022-11-23T17:51:26.401Z,7.90
2022-11-23T17:53:53.705Z,7.90
2022-11-23T17:56:25.983Z,7.90
2022-11-23T17:58:53.837Z,7.80
2022-11-23T18:01:22.388Z,7.90
2022-11-23T18:03:50.574Z,7.80
2022-11-23T18:06:21.129Z,7.80
2022-11-23T18:08:49.642Z,7.80
2022-11-23T18:11:17.754Z,7.80
2022-11-23T18:13:47.991Z,7.80
2022-11-23T18:16:16.243Z,7.80
2022-11-23T18:18:43.671Z,7.80
2022-11-23T18:21:12.619Z,7.80
2022-11-23T18:23:41.185Z,7.80
2022-11-23T18:26:20.875Z,7.80
2022-11-23T18:28:49.074Z,7.80
2022-11-23T18:31:17.183Z,7.80
2022-11-23T18:33:45.977Z,7.80
2022-11-23T18:36:14.049Z,7.80
2022-11-23T18:38:45.092Z,7.80
2022-11-23T18:41:16.045Z,7.80
2022-11-23T18:43:44.754Z,7.80
2022-11-23T18:46:18.937Z,7.70
2022-11-23T18:48:47.339Z,7.70
2022-11-23T18:51:15.936Z,7.70
2022-11-23T18:53:47.280Z,7.70
2022-11-23T18:56:14.566Z,7.70
2022-11-23T18:58:43.734Z,7.80
2022-11-23T19:01:17.671Z,7.80
2022-11-23T19:03:47.056Z,7.80
2022-11-23T19:06:15.482Z,7.80
2022-11-23T19:08:51.042Z,7.80
2022-11-23T19:11:23.047Z,7.80
2022-11-23T19:13:52.582Z,7.70
2022-11-23T19:16:22.353Z,7.70
2022-11-23T19:19:04.439Z,7.70
2022-11-23T19:21:34.168Z,7.70
2022-11-23T19:24:02.167Z,7.70
2022-11-23T19:26:30.409Z,7.70
2022-11-23T19:28:58.653Z,7.80
2022-11-23T19:31:30.655Z,7.80
2022-11-23T19:34:04.148Z,7.80
2022-11-23T19:36:33.343Z,7.80
2022-11-23T19:39:00.746Z,7.80
2022-11-23T19:41:30.767Z,7.80
2022-11-23T19:44:00.384Z,7.80
2022-11-23T19:46:29.140Z,7.80
2022-11-23T19:49:00.009Z,7.80
2022-11-23T19:51:27.953Z,7.80
2022-11-23T19:53:57.991Z,7.80
2022-11-23T19:56:27.586Z,7.80
2022-11-23T19:58:59.481Z,7.80
2022-11-23T20:01:32.471Z,7.80
2022-11-23T20:04:09.644Z,7.80
2022-11-23T20:06:42.073Z,7.70
2022-11-23T20:09:12.628Z,7.70
2022-11-23T20:11:40.945Z,7.70
2022-11-23T20:14:10.919Z,7.70
2022-11-23T20:16:38.521Z,7.70
2022-11-23T20:19:07.858Z,7.60
2022-11-23T20:21:36.484Z,7.60
2022-11-23T20:24:07.409Z,7.60
2022-11-23T20:26:38.614Z,7.60
2022-11-23T20:29:07.027Z,7.60
2022-11-23T20:31:35.691Z,7.60
2022-11-23T20:34:07.105Z,7.60
2022-11-23T20:36:37.404Z,7.60
2022-11-23T20:39:06.957Z,7.70
2022-11-23T20:41:36.260Z,7.70
2022-11-23T20:44:14.234Z,7.70
2022-11-23T20:49:30.417Z,7.80
2022-11-23T20:51:58.331Z,7.90
2022-11-23T20:54:25.582Z,7.90
2022-11-23T20:56:52.843Z,8.00
2022-11-23T20:59:20.592Z,8.00
2022-11-23T21:01:47.972Z,8.00
2022-11-23T21:04:15.393Z,8.00
2022-11-23T21:06:43.018Z,8.00
2022-11-23T21:09:11.111Z,8.00
2022-11-23T21:11:57.025Z,8.00
2022-11-23T21:14:27.890Z,8.00
2022-11-23T21:16:58.583Z,8.00
2022-11-23T21:19:34.650Z,8.00
2022-11-23T21:22:13.539Z,8.00
2022-11-23T21:24:41.565Z,8.00
2022-11-23T21:27:12.197Z,8.00
2022-11-23T21:29:39.568Z,8.00
2022-11-23T21:32:07.040Z,8.00
2022-11-23T21:34:34.591Z,8.00
2022-11-23T21:37:02.615Z,8.00
2022-11-23T21:39:31.017Z,8.00
2022-11-23T21:41:58.790Z,8.00
2022-11-23T21:44:26.757Z,8.00
2022-11-23T21:46:54.099Z,8.00
2022-11-23T21:49:21.889Z,8.00
2022-11-23T21:51:49.408Z,8.10
2022-11-23T21:54:16.758Z,8.00
2022-11-23T21:56:46.023Z,8.10
2022-11-23T21:59:14.260Z,8.10
2022-11-23T22:01:42.221Z,8.00
2022-11-23T22:04:15.306Z,8.00
2022-11-23T22:06:45.064Z,8.00
2022-11-23T22:09:13.153Z,8.00
2022-11-23T22:11:43.033Z,8.00
2022-11-23T22:14:15.591Z,8.00
2022-11-23T22:16:44.919Z,8.00
2022-11-23T22:19:14.228Z,8.10
2022-11-23T22:21:43.412Z,8.10
2022-11-23T22:24:13.527Z,8.10
2022-11-23T22:26:41.379Z,8.10
2022-11-23T22:29:09.826Z,8.10
2022-11-23T22:31:37.529Z,8.10
2022-11-23T22:34:07.254Z,8.10
2022-11-23T22:36:34.646Z,8.10
2022-11-23T22:39:04.987Z,8.10
2022-11-23T22:41:39.164Z,8.10
2022-11-23T22:44:08.554Z,8.10
2022-11-23T22:46:36.631Z,8.10
2022-11-23T22:49:04.692Z,8.10
2022-11-23T22:51:32.153Z,8.10
2022-11-23T22:54:00.943Z,8.10
2022-11-23T22:56:30.449Z,8.10
2022-11-23T22:58:57.956Z,8.10
2022-11-23T23:01:28.563Z,8.10
2022-11-23T23:03:57.326Z,8.10
2022-11-23T23:06:27.386Z,8.10
2022-11-23T23:08:57.181Z,8.10
2022-11-23T23:11:26.793Z,8.20
2022-11-23T23:13:54.474Z,8.10
2022-11-23T23:16:22.188Z,8.20
2022-11-23T23:18:49.974Z,8.20
2022-11-23T23:21:19.965Z,8.20
2022-11-23T23:23:49.646Z,8.20
2022-11-23T23:26:18.720Z,8.20
2022-11-23T23:28:46.653Z,8.10
2022-11-23T23:31:16.298Z,8.20
2022-11-23T23:33:47.083Z,8.10
2022-11-23T23:36:19.881Z,8.20
2022-11-23T23:38:47.401Z,8.20
2022-11-23T23:41:15.195Z,8.20
2022-11-23T23:43:42.661Z,8.20
2022-11-23T23:46:12.552Z,8.20
2022-11-23T23:48:40.664Z,8.20
2022-11-23T23:51:09.867Z,8.20
2022-11-23T23:53:37.559Z,8.20
2022-11-23T23:56:07.958Z,8.20
2022-11-23T23:58:36.082Z,8.10
